createdAt,value
2024-03-15T00:01:56.543Z,96908.41
2024-03-15T00:04:23.263Z,96908.41
2024-03-15T00:06:49.977Z,96904.78
2024-03-15T00:09:16.729Z,96908.88
2024-03-15T00:11:43.533Z,96911.06
2024-03-15T00:14:10.217Z,96914.44
2024-03-15T00:16:37.081Z,96917.78
2024-03-15T00:19:03.997Z,96911.31
2024-03-15T00:21:31.005Z,96913.34
2024-03-15T00:23:57.735Z,96918.09
2024-03-15T00:26:24.418Z,96917.84
2024-03-15T00:28:51.100Z,96918.25
2024-03-15T00:31:17.785Z,96929.59
2024-03-15T00:33:44.554Z,96923.38
2024-03-15T00:36:11.304Z,96919.28
2024-03-15T00:38:37.980Z,96932.41
2024-03-15T00:41:04.643Z,96926.72
2024-03-15T00:43:31.307Z,96930.63
2024-03-15T00:45:58.082Z,96917.69
2024-03-15T00:48:24.942Z,96928.22
2024-03-15T00:50:51.646Z,96923.53
2024-03-15T00:53:18.316Z,96925.44
2024-03-15T00:55:44.965Z,96931.06
2024-03-15T00:58:11.632Z,96929.31
2024-03-15T01:00:38.333Z,96931.88
2024-03-15T01:03:05.078Z,96934.25
2024-03-15T01:05:31.806Z,96935.13
2024-03-15T01:07:58.479Z,96939.84
2024-03-15T01:10:25.408Z,96933.88
2024-03-15T01:12:52.142Z,96934.75
2024-03-15T01:15:18.942Z,96932.28
2024-03-15T01:17:45.736Z,96929.50
2024-03-15T01:20:12.488Z,96924.13
2024-03-15T01:22:39.284Z,96921.25
2024-03-15T01:25:07.594Z,96922.38
2024-03-15T01:27:34.703Z,96917.28
2024-03-15T01:30:01.602Z,96915.03
2024-03-15T01:32:28.356Z,96921.25
2024-03-15T01:34:55.056Z,96925.09
2024-03-15T01:37:21.730Z,96919.97
2024-03-15T01:39:48.452Z,96920.94
2024-03-15T01:42:15.181Z,96914.22
2024-03-15T01:44:41.899Z,96908.50
2024-03-15T01:47:08.565Z,96909.28
2024-03-15T01:49:35.467Z,96916.91
2024-03-15T01:52:02.188Z,96917.28
2024-03-15T01:54:28.846Z,96913.25
2024-03-15T01:56:55.532Z,96912.91
2024-03-15T01:59:22.283Z,96914.84
2024-03-15T02:01:49.159Z,96919.00
2024-03-15T02:04:15.915Z,96922.53
2024-03-15T02:06:42.706Z,96918.63
2024-03-15T02:09:09.535Z,96916.41
2024-03-15T02:11:36.234Z,96920.56
2024-03-15T02:14:02.895Z,96924.56
2024-03-15T02:16:29.580Z,96919.66
2024-03-15T02:18:56.355Z,96920.31
2024-03-15T02:21:23.098Z,96922.16
2024-03-15T02:23:49.758Z,96928.84
2024-03-15T02:26:16.408Z,96932.69
2024-03-15T02:28:43.213Z,96933.47
2024-03-15T02:31:09.889Z,96933.25
2024-03-15T02:33:36.632Z,96930.06
2024-03-15T02:36:03.444Z,96938.47
2024-03-15T02:38:30.081Z,96931.09
2024-03-15T02:40:56.750Z,96933.25
2024-03-15T02:43:23.436Z,96943.31
2024-03-15T02:45:50.163Z,96941.09
2024-03-15T02:48:17.092Z,96940.47
2024-03-15T02:50:43.850Z,96941.50
2024-03-15T02:53:10.519Z,96946.47
2024-03-15T02:55:37.216Z,96942.66
2024-03-15T02:58:03.879Z,96942.28
2024-03-15T03:00:30.618Z,96942.81
2024-03-15T03:02:57.290Z,96940.50
2024-03-15T03:05:24.059Z,96940.31
2024-03-15T03:07:50.916Z,96941.56
2024-03-15T03:10:17.613Z,96942.34
2024-03-15T03:12:44.453Z,96945.25
2024-03-15T03:15:11.591Z,96946.91
2024-03-15T03:17:38.939Z,96945.72
2024-03-15T03:20:05.605Z,96949.22
2024-03-15T03:22:32.274Z,96947.09
2024-03-15T03:24:59.018Z,96951.41
2024-03-15T03:27:25.709Z,96956.31
2024-03-15T03:29:52.390Z,96956.03
2024-03-15T03:32:19.061Z,96954.38
2024-03-15T03:34:45.737Z,96963.59
2024-03-15T03:37:12.423Z,96957.31
2024-03-15T03:39:39.101Z,96957.34
2024-03-15T03:42:05.937Z,96955.22
2024-03-15T03:44:32.727Z,96953.41
2024-03-15T03:46:59.454Z,96952.34
2024-03-15T03:49:26.114Z,96953.53
2024-03-15T03:51:52.795Z,96958.66
2024-03-15T03:54:19.492Z,96965.31
2024-03-15T03:56:46.168Z,96967.09
2024-03-15T03:59:12.844Z,96969.75
2024-03-15T04:01:39.640Z,96961.44
2024-03-15T04:04:06.384Z,96962.88
2024-03-15T04:06:33.117Z,96960.81
2024-03-15T04:08:59.834Z,96965.00
2024-03-15T04:11:26.544Z,96976.53
2024-03-15T04:13:53.278Z,96968.25
2024-03-15T04:16:20.012Z,96974.00
2024-03-15T04:18:46.702Z,96987.34
2024-03-15T04:21:13.468Z,96977.66
2024-03-15T04:23:40.134Z,96979.78
2024-03-15T04:26:06.799Z,96978.69
2024-03-15T04:28:33.495Z,96976.75
2024-03-15T04:31:00.269Z,96980.75
2024-03-15T04:33:27.078Z,96980.72
2024-03-15T04:35:53.943Z,96982.44
2024-03-15T04:38:20.617Z,96980.50
2024-03-15T04:40:47.286Z,96976.06
2024-03-15T04:43:13.971Z,96978.88
2024-03-15T04:45:40.796Z,96981.06
2024-03-15T04:48:07.716Z,96982.94
2024-03-15T04:50:34.464Z,96988.38
2024-03-15T04:53:01.157Z,96986.44
2024-03-15T04:55:29.189Z,96987.97
2024-03-15T04:57:57.438Z,96981.44
2024-03-15T05:00:24.408Z,96986.38
2024-03-15T05:02:51.972Z,96983.47
2024-03-15T05:05:19.995Z,96984.16
2024-03-15T05:07:46.775Z,96990.63
2024-03-15T05:10:13.596Z,96992.53
2024-03-15T05:12:40.348Z,96983.25
2024-03-15T05:15:07.181Z,96994.94
2024-03-15T05:17:33.994Z,96985.19
2024-03-15T05:20:00.698Z,96988.75
2024-03-15T05:22:27.398Z,96989.09
2024-03-15T05:24:54.080Z,96989.41
2024-03-15T05:27:20.819Z,96998.59
2024-03-15T05:29:47.544Z,97002.34
2024-03-15T05:32:14.224Z,96998.59
2024-03-15T05:34:40.915Z,97003.25
2024-03-15T05:37:07.646Z,97003.81
2024-03-15T05:39:34.414Z,97010.19
2024-03-15T05:42:01.138Z,97010.16
2024-03-15T05:44:27.812Z,97001.91
2024-03-15T05:46:54.519Z,97006.66
2024-03-15T05:49:21.181Z,97005.78
2024-03-15T05:51:47.907Z,97017.63
2024-03-15T05:54:14.744Z,97015.41
2024-03-15T05:56:41.440Z,97017.66
2024-03-15T05:59:08.123Z,97012.22
2024-03-15T06:01:34.855Z,97030.84
2024-03-15T06:04:01.582Z,97026.16
2024-03-15T06:06:28.312Z,97032.69
2024-03-15T06:08:55.000Z,97025.47
2024-03-15T06:11:21.768Z,97026.06
2024-03-15T06:13:48.431Z,97030.72
2024-03-15T06:16:15.115Z,97021.38
2024-03-15T06:18:41.852Z,97025.75
2024-03-15T06:21:08.564Z,97035.78
2024-03-15T06:23:35.263Z,97032.31
2024-03-15T06:26:01.969Z,97033.81
2024-03-15T06:28:28.672Z,97041.28
2024-03-15T06:30:55.624Z,97033.75
2024-03-15T06:33:22.428Z,97036.47
2024-03-15T06:35:49.151Z,97029.00
2024-03-15T06:38:15.838Z,97038.16
2024-03-15T06:40:42.650Z,97028.19
2024-03-15T06:43:09.321Z,97030.34
2024-03-15T06:45:35.997Z,97041.00
2024-03-15T06:48:02.734Z,97041.50
2024-03-15T06:50:29.385Z,97038.06
2024-03-15T06:52:56.048Z,97042.91
2024-03-15T06:55:22.725Z,97042.44
2024-03-15T06:57:49.454Z,97050.41
2024-03-15T07:00:16.242Z,97049.84
2024-03-15T07:02:42.930Z,97048.56
2024-03-15T07:05:09.617Z,97056.09
2024-03-15T07:07:36.420Z,97048.47
2024-03-15T07:10:03.196Z,97049.72
2024-03-15T07:12:29.979Z,97059.94
2024-03-15T07:14:56.676Z,97050.72
2024-03-15T07:17:23.322Z,97064.50
2024-03-15T07:19:50.002Z,97072.03
2024-03-15T07:22:16.786Z,97072.44
2024-03-15T07:24:43.520Z,97079.13
2024-03-15T07:27:10.319Z,97080.78
2024-03-15T07:29:37.111Z,97083.22
2024-03-15T07:32:03.865Z,97088.09
2024-03-15T07:34:30.582Z,97092.53
2024-03-15T07:36:57.380Z,97078.84
2024-03-15T07:39:24.089Z,97079.88
2024-03-15T07:41:50.785Z,97077.19
2024-03-15T07:44:17.488Z,97072.34
2024-03-15T07:46:44.158Z,97074.66
2024-03-15T07:49:10.836Z,97085.59
2024-03-15T07:51:37.730Z,97085.72
2024-03-15T07:54:04.435Z,97086.84
2024-03-15T07:56:31.134Z,97098.22
2024-03-15T07:58:57.889Z,97095.72
2024-03-15T08:01:24.656Z,97086.72
2024-03-15T08:03:51.635Z,97099.78
2024-03-15T08:06:18.482Z,97102.09
2024-03-15T08:08:45.176Z,97099.44
2024-03-15T08:11:11.878Z,97100.97
2024-03-15T08:13:38.585Z,97105.50
2024-03-15T08:16:05.435Z,97105.69
2024-03-15T08:18:32.342Z,97118.59
2024-03-15T08:20:59.194Z,97115.44
2024-03-15T08:23:25.876Z,97128.28
2024-03-15T08:25:52.585Z,97121.41
2024-03-15T08:28:19.618Z,97130.41
2024-03-15T08:30:46.548Z,97129.25
2024-03-15T08:33:13.474Z,97129.97
2024-03-15T08:35:40.228Z,97131.34
2024-03-15T08:38:06.945Z,97126.06
2024-03-15T08:40:33.659Z,97129.75
2024-03-15T08:43:00.509Z,97131.34
2024-03-15T08:45:27.619Z,97132.69
2024-03-15T08:48:00.435Z,97116.41
2024-03-15T08:50:28.448Z,97124.94
2024-03-15T08:52:55.302Z,97122.13
2024-03-15T08:55:22.102Z,97130.69
2024-03-15T08:57:49.052Z,97137.13
2024-03-15T09:00:15.773Z,97134.78
2024-03-15T09:02:42.418Z,97139.16
2024-03-15T09:05:08.949Z,97140.44
2024-03-15T09:07:35.523Z,97136.31
2024-03-15T09:10:02.525Z,97136.44
2024-03-15T09:12:29.110Z,97136.97
2024-03-15T09:14:55.731Z,97137.56
2024-03-15T09:17:22.226Z,97129.53
2024-03-15T09:19:48.711Z,97133.25
2024-03-15T09:22:15.320Z,97134.28
2024-03-15T09:24:42.021Z,97125.34
2024-03-15T09:27:08.589Z,97131.03
2024-03-15T09:29:35.144Z,97125.84
2024-03-15T09:32:12.790Z,97124.94
2024-03-15T09:34:43.598Z,97124.88
2024-03-15T09:37:10.179Z,97118.91
2024-03-15T09:39:36.748Z,97124.38
2024-03-15T09:42:03.275Z,97121.06
2024-03-15T09:44:29.835Z,97122.50
2024-03-15T09:46:56.378Z,97118.41
2024-03-15T09:49:23.132Z,97114.53
2024-03-15T09:51:49.803Z,97117.28
2024-03-15T09:54:16.501Z,97120.06
2024-03-15T09:56:43.084Z,97108.56
2024-03-15T09:59:09.761Z,97100.63
2024-03-15T10:01:36.605Z,97110.25
2024-03-15T10:04:03.497Z,97115.78
2024-03-15T10:06:30.314Z,97105.50
2024-03-15T10:08:57.086Z,97107.94
2024-03-15T10:11:23.899Z,97108.31
2024-03-15T10:13:50.711Z,97118.34
2024-03-15T10:16:17.572Z,97113.47
2024-03-15T10:18:44.287Z,97110.03
2024-03-15T10:21:11.276Z,97104.06
2024-03-15T10:23:38.189Z,97103.03
2024-03-15T10:26:04.872Z,97108.31
2024-03-15T10:28:31.837Z,97106.31
2024-03-15T10:30:58.537Z,97109.28
2024-03-15T10:33:25.338Z,97108.47
2024-03-15T10:35:52.327Z,97098.47
2024-03-15T10:38:19.074Z,97109.91
2024-03-15T10:40:45.740Z,97107.44
2024-03-15T10:43:12.565Z,97104.16
2024-03-15T10:45:39.305Z,97111.13
2024-03-15T10:48:06.083Z,97101.78
2024-03-15T10:50:32.767Z,97106.34
2024-03-15T10:52:59.434Z,97106.13
2024-03-15T10:55:26.151Z,97105.84
2024-03-15T10:57:52.846Z,97116.59
2024-03-15T11:00:19.671Z,97108.38
2024-03-15T11:02:46.536Z,97111.78
2024-03-15T11:05:13.194Z,97105.25
2024-03-15T11:07:39.969Z,97119.28
2024-03-15T11:10:06.743Z,97114.75
2024-03-15T11:12:33.503Z,97113.03
2024-03-15T11:15:00.303Z,97109.75
2024-03-15T11:17:27.083Z,97111.84
2024-03-15T11:19:53.870Z,97104.63
2024-03-15T11:22:21.167Z,97106.28
2024-03-15T11:24:48.222Z,97109.09
2024-03-15T11:27:15.105Z,97103.88
2024-03-15T11:29:41.861Z,97111.47
2024-03-15T11:32:08.566Z,97110.44
2024-03-15T11:34:35.347Z,97118.41
2024-03-15T11:37:02.100Z,97119.84
2024-03-15T11:39:28.913Z,97111.59
2024-03-15T11:41:55.588Z,97118.03
2024-03-15T11:44:22.532Z,97116.94
2024-03-15T11:46:49.257Z,97122.28
2024-03-15T11:49:16.063Z,97123.44
2024-03-15T11:51:42.890Z,97119.91
2024-03-15T11:54:09.659Z,97118.34
2024-03-15T11:56:36.343Z,97123.44
2024-03-15T11:59:03.076Z,97131.63
2024-03-15T12:01:29.965Z,97130.28
2024-03-15T12:03:56.786Z,97125.16
2024-03-15T12:06:23.541Z,97125.84
2024-03-15T12:08:50.344Z,97123.56
2024-03-15T12:11:17.113Z,97128.38
2024-03-15T12:13:43.829Z,97121.84
2024-03-15T12:16:10.603Z,97117.53
2024-03-15T12:18:37.385Z,97126.03
2024-03-15T12:21:04.114Z,97121.16
2024-03-15T12:23:31.412Z,97122.38
2024-03-15T12:25:58.951Z,97126.59
2024-03-15T12:28:25.646Z,97116.59
2024-03-15T12:30:52.418Z,97122.31
2024-03-15T12:33:19.233Z,97116.25
2024-03-15T12:35:46.398Z,97105.78
2024-03-15T12:38:13.214Z,97096.84
2024-03-15T12:40:39.909Z,97105.75
2024-03-15T12:43:06.636Z,97101.22
2024-03-15T12:45:33.474Z,97102.69
2024-03-15T12:48:00.235Z,97093.41
2024-03-15T12:50:27.009Z,97088.88
2024-03-15T12:52:53.845Z,97093.19
2024-03-15T12:55:20.557Z,97104.44
2024-03-15T12:57:47.350Z,97097.06
2024-03-15T13:00:14.086Z,97103.25
2024-03-15T13:02:40.780Z,97109.03
2024-03-15T13:05:07.451Z,97104.50
2024-03-15T13:07:34.289Z,97110.63
2024-03-15T13:10:01.148Z,97101.59
2024-03-15T13:12:27.922Z,97107.03
2024-03-15T13:14:57.653Z,97106.66
2024-03-15T13:17:24.546Z,97097.03
2024-03-15T13:19:51.229Z,97107.78
2024-03-15T13:22:17.911Z,97107.56
2024-03-15T13:24:44.618Z,97107.84
2024-03-15T13:27:11.305Z,97106.53
2024-03-15T13:29:38.107Z,97109.81
2024-03-15T13:32:04.788Z,97095.38
2024-03-15T13:34:31.442Z,97108.09
2024-03-15T13:36:58.154Z,97105.25
2024-03-15T13:39:24.986Z,97098.03
2024-03-15T13:41:51.713Z,97094.88
2024-03-15T13:44:18.392Z,97099.78
2024-03-15T13:46:45.057Z,97090.00
2024-03-15T13:49:11.952Z,97080.84
2024-03-15T13:51:38.757Z,97087.66
2024-03-15T13:54:05.489Z,97085.41
2024-03-15T13:56:32.178Z,97087.66
2024-03-15T13:58:58.913Z,97077.84
2024-03-15T14:01:25.758Z,97073.41
2024-03-15T14:03:52.708Z,97064.72
2024-03-15T14:06:19.508Z,97069.28
2024-03-15T14:08:46.201Z,97068.16
2024-03-15T14:11:12.915Z,97065.09
2024-03-15T14:13:39.608Z,97069.09
2024-03-15T14:16:06.442Z,97060.88
2024-03-15T14:18:33.208Z,97059.44
2024-03-15T14:21:01.424Z,97058.91
2024-03-15T14:23:28.209Z,97055.50
2024-03-15T14:25:54.950Z,97061.34
2024-03-15T14:28:21.706Z,97059.56
2024-03-15T14:30:48.472Z,97052.66
2024-03-15T14:33:15.204Z,97057.47
2024-03-15T14:35:41.931Z,97053.84
2024-03-15T14:38:08.600Z,97059.34
2024-03-15T14:40:35.354Z,97056.38
2024-03-15T14:43:02.153Z,97060.81
2024-03-15T14:45:28.908Z,97066.00
2024-03-15T14:47:55.737Z,97061.84
2024-03-15T14:50:22.503Z,97075.94
2024-03-15T14:52:49.223Z,97068.25
2024-03-15T14:55:15.918Z,97061.38
2024-03-15T14:57:42.645Z,97045.53
2024-03-15T15:00:09.385Z,97047.50
2024-03-15T15:02:36.176Z,97054.66
2024-03-15T15:05:03.054Z,97046.34
2024-03-15T15:07:29.980Z,97042.94
2024-03-15T15:09:56.789Z,97036.09
2024-03-15T15:12:23.636Z,97038.44
2024-03-15T15:14:50.315Z,97030.56
2024-03-15T15:17:17.098Z,97032.63
2024-03-15T15:19:43.933Z,97039.84
2024-03-15T15:22:10.766Z,97038.38
2024-03-15T15:24:37.559Z,97043.16
2024-03-15T15:27:04.238Z,97038.25
2024-03-15T15:29:30.944Z,97037.03
2024-03-15T15:31:57.599Z,97047.75
2024-03-15T15:34:25.631Z,97045.44
2024-03-15T15:36:52.666Z,97051.22
2024-03-15T15:39:19.485Z,97047.97
2024-03-15T15:41:46.184Z,97043.09
2024-03-15T15:44:12.841Z,97047.34
2024-03-15T15:46:39.661Z,97042.22
2024-03-15T15:49:06.553Z,97045.25
2024-03-15T15:51:33.584Z,97053.78
2024-03-15T15:54:00.333Z,97060.31
2024-03-15T15:56:26.993Z,97054.56
2024-03-15T15:58:53.647Z,97051.72
2024-03-15T16:01:20.537Z,97041.38
2024-03-15T16:03:47.451Z,97042.63
2024-03-15T16:06:14.181Z,97045.66
2024-03-15T16:08:40.853Z,97049.19
2024-03-15T16:11:07.566Z,97042.53
2024-03-15T16:13:34.328Z,97048.31
2024-03-15T16:16:01.074Z,97043.56
2024-03-15T16:18:27.841Z,97030.91
2024-03-15T16:20:54.522Z,97045.56
2024-03-15T16:23:21.185Z,97045.97
2024-03-15T16:25:47.837Z,97054.84
2024-03-15T16:28:14.614Z,97055.47
2024-03-15T16:30:41.340Z,97058.41
2024-03-15T16:33:10.163Z,97056.34
2024-03-15T16:35:37.900Z,97062.25
2024-03-15T16:38:04.572Z,97061.63
2024-03-15T16:40:31.255Z,97068.56
2024-03-15T16:42:58.086Z,97080.09
2024-03-15T16:45:24.844Z,97081.66
2024-03-15T16:47:51.584Z,97084.56
2024-03-15T16:50:18.307Z,97083.09
2024-03-15T16:52:45.068Z,97084.25
2024-03-15T16:55:11.754Z,97086.75
2024-03-15T16:57:38.483Z,97083.19
2024-03-15T17:00:05.136Z,97086.19
2024-03-15T17:02:32.069Z,97087.56
2024-03-15T17:04:58.729Z,97099.72
2024-03-15T17:07:25.445Z,97088.34
2024-03-15T17:09:52.310Z,97092.22
2024-03-15T17:12:19.186Z,97085.97
2024-03-15T17:14:45.933Z,97085.56
2024-03-15T17:17:12.665Z,97108.59
2024-03-15T17:19:39.329Z,97114.16
2024-03-15T17:22:06.112Z,97127.63
2024-03-15T17:24:32.894Z,97127.34
2024-03-15T17:26:59.621Z,97115.97
2024-03-15T17:29:26.309Z,97130.75
2024-03-15T17:31:53.008Z,97105.88
2024-03-15T17:34:19.694Z,97104.63
2024-03-15T17:36:46.513Z,97118.91
2024-03-15T17:39:13.300Z,97122.28
2024-03-15T17:41:40.091Z,97123.72
2024-03-15T17:44:06.814Z,97122.81
2024-03-15T17:46:33.479Z,97127.22
2024-03-15T17:49:00.472Z,97128.28
2024-03-15T17:51:27.359Z,97133.03
2024-03-15T17:53:58.123Z,97129.72
2024-03-15T17:56:25.089Z,97118.09
2024-03-15T17:58:51.881Z,97120.66
2024-03-15T18:01:18.561Z,97119.75
2024-03-15T18:03:45.236Z,97125.56
2024-03-15T18:06:11.904Z,97138.13
2024-03-15T18:08:38.573Z,97155.41
2024-03-15T18:11:05.256Z,97174.69
2024-03-15T18:13:31.925Z,97158.97
2024-03-15T18:15:58.700Z,97152.53
2024-03-15T18:18:25.482Z,97148.19
2024-03-15T18:20:52.172Z,97154.03
2024-03-15T18:23:19.081Z,97146.88
2024-03-15T18:25:45.901Z,97158.59
2024-03-15T18:28:14.518Z,97162.63
2024-03-15T18:30:41.258Z,97159.97
2024-03-15T18:33:07.974Z,97154.69
2024-03-15T18:35:34.725Z,97150.44
2024-03-15T18:38:01.430Z,97151.88
2024-03-15T18:40:28.092Z,97155.75
2024-03-15T18:42:54.793Z,97149.69
2024-03-15T18:45:21.519Z,97152.94
2024-03-15T18:47:48.667Z,97152.00
2024-03-15T18:50:15.386Z,97153.84
2024-03-15T18:52:42.052Z,97150.91
2024-03-15T18:55:08.873Z,97151.38
2024-03-15T18:57:35.670Z,97159.31
2024-03-15T19:00:02.352Z,97156.84
2024-03-15T19:02:29.047Z,97161.66
2024-03-15T19:04:55.772Z,97155.22
2024-03-15T19:07:22.489Z,97166.88
2024-03-15T19:09:49.258Z,97177.59
2024-03-15T19:12:16.089Z,97173.44
2024-03-15T19:14:42.891Z,97169.44
2024-03-15T19:17:09.592Z,97176.66
2024-03-15T19:19:36.277Z,97161.03
2024-03-15T19:22:03.011Z,97166.59
2024-03-15T19:24:29.775Z,97162.34
2024-03-15T19:26:56.466Z,97166.09
2024-03-15T19:29:23.136Z,97167.13
2024-03-15T19:31:49.827Z,97168.25
2024-03-15T19:34:16.499Z,97174.03
2024-03-15T19:36:43.211Z,97182.66
2024-03-15T19:39:09.910Z,97171.22
2024-03-15T19:41:36.594Z,97167.09
2024-03-15T19:44:03.279Z,97159.50
2024-03-15T19:46:29.961Z,97160.13
2024-03-15T19:48:56.687Z,97157.97
2024-03-15T19:51:23.414Z,97161.31
2024-03-15T19:53:50.089Z,97153.88
2024-03-15T19:56:16.941Z,97157.03
2024-03-15T19:58:43.731Z,97150.59
2024-03-15T20:01:10.505Z,97145.84
2024-03-15T20:03:37.439Z,97149.97
2024-03-15T20:06:04.215Z,97153.56
2024-03-15T20:08:30.861Z,97151.97
2024-03-15T20:10:57.687Z,97152.31
2024-03-15T20:13:24.406Z,97158.00
2024-03-15T20:15:51.164Z,97157.75
2024-03-15T20:18:17.918Z,97161.50
2024-03-15T20:20:44.589Z,97160.94
2024-03-15T20:23:11.296Z,97156.75
2024-03-15T20:25:37.983Z,97153.28
2024-03-15T20:28:05.084Z,97153.28
2024-03-15T20:30:32.215Z,97154.75
2024-03-15T20:32:59.114Z,97157.75
2024-03-15T20:35:25.821Z,97160.69
2024-03-15T20:37:52.571Z,97170.22
2024-03-15T20:40:19.367Z,97160.44
2024-03-15T20:42:46.107Z,97167.16
2024-03-15T20:45:12.825Z,97163.84
2024-03-15T20:47:39.503Z,97175.38
2024-03-15T20:50:06.238Z,97181.34
2024-03-15T20:52:32.944Z,97197.19
2024-03-15T20:54:59.696Z,97215.25
2024-03-15T20:57:26.403Z,97231.41
2024-03-15T20:59:53.315Z,97245.97
2024-03-15T21:02:19.964Z,97232.84
2024-03-15T21:04:47.765Z,97218.25
2024-03-15T21:07:15.684Z,97206.47
2024-03-15T21:09:42.408Z,97200.88
2024-03-15T21:12:09.094Z,97205.09
2024-03-15T21:14:35.769Z,97202.69
2024-03-15T21:17:02.486Z,97202.41
2024-03-15T21:19:29.175Z,97208.81
2024-03-15T21:21:55.869Z,97206.34
2024-03-15T21:24:22.605Z,97212.88
2024-03-15T21:26:49.282Z,97221.50
2024-03-15T21:29:16.002Z,97237.13
2024-03-15T21:31:42.801Z,97224.69
2024-03-15T21:34:09.641Z,97224.84
2024-03-15T21:36:36.605Z,97228.75
2024-03-15T21:39:03.304Z,97211.28
2024-03-15T21:41:29.978Z,97226.63
2024-03-15T21:43:56.652Z,97220.44
2024-03-15T21:46:23.425Z,97222.88
2024-03-15T21:48:50.235Z,97214.34
2024-03-15T21:51:16.945Z,97211.59
2024-03-15T21:53:43.640Z,97216.00
2024-03-15T21:56:10.331Z,97214.94
2024-03-15T21:58:37.030Z,97229.38
2024-03-15T22:01:03.772Z,97242.00
2024-03-15T22:03:30.486Z,97238.72
2024-03-15T22:05:57.148Z,97247.25
2024-03-15T22:08:23.813Z,97244.00
2024-03-15T22:10:50.585Z,97251.31
2024-03-15T22:13:17.328Z,97252.56
2024-03-15T22:15:44.144Z,97261.84
2024-03-15T22:18:10.867Z,97249.53
2024-03-15T22:20:37.634Z,97262.69
2024-03-15T22:23:04.329Z,97259.53
2024-03-15T22:25:31.031Z,97261.47
2024-03-15T22:27:57.762Z,97270.16
2024-03-15T22:30:24.566Z,97273.53
2024-03-15T22:32:51.313Z,97285.66
2024-03-15T22:35:17.992Z,97272.03
2024-03-15T22:37:44.659Z,97269.59
2024-03-15T22:40:11.420Z,97266.16
2024-03-15T22:42:38.174Z,97265.94
2024-03-15T22:45:04.896Z,97258.38
2024-03-15T22:47:31.551Z,97257.78
2024-03-15T22:49:58.203Z,97249.69
2024-03-15T22:52:24.867Z,97248.09
2024-03-15T22:54:51.545Z,97245.91
2024-03-15T22:57:18.256Z,97249.28
2024-03-15T22:59:44.963Z,97250.63
2024-03-15T23:02:11.627Z,97245.09
2024-03-15T23:04:38.292Z,97239.25
2024-03-15T23:07:05.114Z,97247.44
2024-03-15T23:09:31.832Z,97254.44
2024-03-15T23:11:58.357Z,97266.50
2024-03-15T23:14:24.885Z,97264.88
2024-03-15T23:16:51.414Z,97269.81
2024-03-15T23:19:17.952Z,97265.91
2024-03-15T23:21:44.742Z,97279.00
2024-03-15T23:24:11.302Z,97277.50
2024-03-15T23:26:37.881Z,97290.19
2024-03-15T23:29:04.413Z,97286.75
2024-03-15T23:31:30.917Z,97284.63
2024-03-15T23:33:59.733Z,97293.41
2024-03-15T23:36:27.812Z,97298.63
2024-03-15T23:38:54.366Z,97287.13
2024-03-15T23:41:20.863Z,97285.72
2024-03-15T23:43:47.390Z,97285.03
2024-03-15T23:46:13.970Z,97290.34
2024-03-15T23:48:40.525Z,97284.75
2024-03-15T23:51:07.063Z,97287.97
2024-03-15T23:53:33.590Z,97293.88
2024-03-15T23:56:00.197Z,97299.09
2024-03-15T23:58:26.812Z,97292.69
